This is the latest recevied weather packets stored in our database for station/object OK1ALX-6. If no packets are shown the sender has not sent any weather packets the latest 10 day(s).
| Time | Temp. | Humidity | Pressure | Rain* | Wind** | Luminosity | Snow |
|---|---|---|---|---|---|---|---|
| 1777254003 | 1.11° C | 81% | 1031.4 hPa | 0 mm | - | 0 W/m² | - |
| 1777253403 | 1.67° C | 79% | 1031.2 hPa | 0 mm | - | 0 W/m² | - |
| 1777252803 | 1.67° C | 79% | 1031.3 hPa | 0 mm | - | 0 W/m² | - |
| 1777252203 | 1.67° C | 79% | 1031.4 hPa | 0 mm | - | 0 W/m² | - |
| 1777251603 | 1.11° C | 81% | 1031.3 hPa | 0 mm | - | 0 W/m² | - |
| 1777251003 | 1.11° C | 81% | 1031.6 hPa | 0 mm | - | 0 W/m² | - |
| 1777250403 | 1.67° C | 81% | 1031.6 hPa | 0 mm | - | 0 W/m² | - |
| 1777249803 | 1.67° C | 80% | 1031.6 hPa | 0 mm | - | 0 W/m² | - |
| 1777249203 | 1.67° C | 79% | 1031.5 hPa | 0 mm | - | 0 W/m² | - |
| 1777248603 | 1.67° C | 80% | 1031.4 hPa | 0 mm | - | 0 W/m² | - |
| 1777248004 | 1.67° C | 80% | 1031.4 hPa | 0 mm | - | 0 W/m² | - |
| 1777247403 | 1.67° C | 80% | 1031.4 hPa | 0 mm | - | 0 W/m² | - |
| 1777246803 | 1.67° C | 80% | 1031.6 hPa | 0 mm | - | 0 W/m² | - |
| 1777246203 | 2.22° C | 79% | 1031.3 hPa | 0 mm | - | 0 W/m² | - |
| 1777245603 | 2.22° C | 77% | 1031.1 hPa | 0 mm | - | 0 W/m² | - |
| 1777245003 | 3.33° C | 72% | 1031 hPa | 0 mm | - | 0 W/m² | - |
| 1777244403 | 3.33° C | 72% | 1031.1 hPa | 0 mm | - | 0 W/m² | - |
| 1777243803 | 2.78° C | 74% | 1031.1 hPa | 0 mm | - | 0 W/m² | - |
| 1777243203 | 3.33° C | 73% | 1031.2 hPa | 0 mm | - | 0 W/m² | - |
| 1777242603 | 3.33° C | 72% | 1031.1 hPa | 0 mm | - | 0 W/m² | - |
| 1777242003 | 3.33° C | 73% | 1031.2 hPa | 0 mm | - | 0 W/m² | - |
| 1777241403 | 3.89° C | 71% | 1030.8 hPa | 0 mm | - | 0 W/m² | - |
| 1777240813 | 3.89° C | 69% | 1031 hPa | 0 mm | - | 0 W/m² | - |
| 1777240203 | 3.89° C | 71% | 1031 hPa | 0 mm | - | 0 W/m² | - |
| 1777239603 | 3.89° C | 72% | 1031.1 hPa | 0 mm | - | 0 W/m² | - |
* Rain latest hour (hover to see other rain measurements)
** Current wind speed in m/s (hover to see current wind gust speed)